Bisbee Douglas International Airport Douglas Bisbee US
ICAO: KDUG
IATA: DUG
Category: Medium
Scheduled Services: No

Elevation: 4154 ft
TransAlt. 18000 ft.

Airport Communications:
ASOS:119.275
PRESCOTT RDO:122.4
CTAF/UNICOM:123

KDUG Zoom In..

Runways:

(A) RW 08 length 4966 ft width 60 ft
---- / hdg 78

(B) RW 17 length 6430 ft width 100 ft
---- / hdg 168

(C) RW 26 length 4966 ft width 60 ft
---- / hdg 258

(D) RW 35 length 6430 ft width 100 ft
---- / hdg 348

Location; KDUG
Day. 14 / Time. 13.56 Zulu
* Altimeter: 30.07
* Temperature: 21° c. 69.8°f.
* Wind from: 170° Speed 06 kn.
Dewpoint: 17° c.
Visibility: 10 Statute Miles.
Clouds: Clear (automated report).

KDUG 141356Z AUTO 17006KT 10SM CLR 21/17 A3007 RMK AO2 SLP111 T02060172


Wind From 170°
Speed 06 kn.

 
 
jpsmedia.com for Web Design worldairports.se 2018   terms of use